sensor_id;sensor_type;location;lat;lon;timestamp;P1;durP1;ratioP1;P2;durP2;ratioP2
21589;SDS011;10957;50.968;6.828;2022-12-10T00:03:35;2.20;;;2.10;;
21589;SDS011;10957;50.968;6.828;2022-12-10T00:08:37;3.00;;;2.83;;
21589;SDS011;10957;50.968;6.828;2022-12-10T00:13:39;2.70;;;2.60;;
21589;SDS011;10957;50.968;6.828;2022-12-10T00:18:41;3.07;;;2.93;;
21589;SDS011;10957;50.968;6.828;2022-12-10T00:23:43;2.40;;;2.30;;
21589;SDS011;10957;50.968;6.828;2022-12-10T00:28:45;2.63;;;2.53;;
21589;SDS011;10957;50.968;6.828;2022-12-10T00:33:47;2.20;;;2.10;;
21589;SDS011;10957;50.968;6.828;2022-12-10T00:38:49;2.20;;;2.10;;
21589;SDS011;10957;50.968;6.828;2022-12-10T00:43:51;2.00;;;1.90;;
21589;SDS011;10957;50.968;6.828;2022-12-10T00:48:52;2.10;;;2.00;;
21589;SDS011;10957;50.968;6.828;2022-12-10T00:53:54;2.50;;;2.40;;
21589;SDS011;10957;50.968;6.828;2022-12-10T00:58:58;2.00;;;1.90;;
21589;SDS011;10957;50.968;6.828;2022-12-10T01:04:10;3.47;;;3.27;;
21589;SDS011;10957;50.968;6.828;2022-12-10T01:09:15;2.17;;;2.07;;
21589;SDS011;10957;50.968;6.828;2022-12-10T01:14:23;1.93;;;1.90;;
21589;SDS011;10957;50.968;6.828;2022-12-10T01:19:27;2.10;;;2.00;;
21589;SDS011;10957;50.968;6.828;2022-12-10T01:24:28;1.80;;;1.80;;
21589;SDS011;10957;50.968;6.828;2022-12-10T01:29:30;2.20;;;2.10;;
21589;SDS011;10957;50.968;6.828;2022-12-10T01:34:31;2.17;;;2.07;;
21589;SDS011;10957;50.968;6.828;2022-12-10T01:39:32;2.00;;;1.90;;
21589;SDS011;10957;50.968;6.828;2022-12-10T01:45:19;1.80;;;1.80;;
21589;SDS011;10957;50.968;6.828;2022-12-10T01:49:58;2.40;;;2.30;;
21589;SDS011;10957;50.968;6.828;2022-12-10T01:55:01;3.43;;;3.27;;
21589;SDS011;10957;50.968;6.828;2022-12-10T02:00:07;1.67;;;1.67;;
21589;SDS011;10957;50.968;6.828;2022-12-10T02:05:39;2.20;;;2.10;;
21589;SDS011;10957;50.968;6.828;2022-12-10T02:10:49;2.00;;;1.90;;
21589;SDS011;10957;50.968;6.828;2022-12-10T02:16:06;3.27;;;3.17;;
21589;SDS011;10957;50.968;6.828;2022-12-10T02:21:14;4.90;;;4.47;;
21589;SDS011;10957;50.968;6.828;2022-12-10T02:31:42;1.93;;;1.87;;
21589;SDS011;10957;50.968;6.828;2022-12-10T02:36:48;3.13;;;2.93;;
21589;SDS011;10957;50.968;6.828;2022-12-10T02:41:54;6.10;;;3.70;;
21589;SDS011;10957;50.968;6.828;2022-12-10T02:46:58;2.10;;;2.00;;
21589;SDS011;10957;50.968;6.828;2022-12-10T02:52:07;2.10;;;2.00;;
21589;SDS011;10957;50.968;6.828;2022-12-10T02:57:22;5.50;;;4.00;;
21589;SDS011;10957;50.968;6.828;2022-12-10T03:07:39;1.60;;;1.60;;
21589;SDS011;10957;50.968;6.828;2022-12-10T03:12:51;2.53;;;2.43;;
21589;SDS011;10957;50.968;6.828;2022-12-10T03:18:05;1.80;;;1.80;;
21589;SDS011;10957;50.968;6.828;2022-12-10T03:23:09;1.60;;;1.60;;
21589;SDS011;10957;50.968;6.828;2022-12-10T03:28:16;1.50;;;1.50;;
21589;SDS011;10957;50.968;6.828;2022-12-10T03:33:19;1.57;;;1.57;;
21589;SDS011;10957;50.968;6.828;2022-12-10T03:38:21;3.03;;;2.83;;
21589;SDS011;10957;50.968;6.828;2022-12-10T03:43:22;1.50;;;1.50;;
21589;SDS011;10957;50.968;6.828;2022-12-10T03:48:24;2.43;;;2.33;;
21589;SDS011;10957;50.968;6.828;2022-12-10T03:53:26;2.17;;;2.07;;
21589;SDS011;10957;50.968;6.828;2022-12-10T03:58:28;1.60;;;1.60;;
21589;SDS011;10957;50.968;6.828;2022-12-10T04:03:30;1.50;;;1.50;;
21589;SDS011;10957;50.968;6.828;2022-12-10T04:08:34;1.60;;;1.60;;
21589;SDS011;10957;50.968;6.828;2022-12-10T04:13:36;1.50;;;1.50;;
21589;SDS011;10957;50.968;6.828;2022-12-10T04:18:58;1.60;;;1.60;;
21589;SDS011;10957;50.968;6.828;2022-12-10T04:24:10;1.50;;;1.50;;
21589;SDS011;10957;50.968;6.828;2022-12-10T04:29:32;1.40;;;1.40;;
21589;SDS011;10957;50.968;6.828;2022-12-10T04:34:33;1.43;;;1.43;;
21589;SDS011;10957;50.968;6.828;2022-12-10T04:39:34;1.40;;;1.40;;
21589;SDS011;10957;50.968;6.828;2022-12-10T04:44:36;1.70;;;1.70;;
21589;SDS011;10957;50.968;6.828;2022-12-10T04:49:37;1.60;;;1.60;;
21589;SDS011;10957;50.968;6.828;2022-12-10T04:54:39;1.60;;;1.60;;
21589;SDS011;10957;50.968;6.828;2022-12-10T04:59:41;1.60;;;1.60;;
21589;SDS011;10957;50.968;6.828;2022-12-10T05:04:43;2.43;;;2.33;;
21589;SDS011;10957;50.968;6.828;2022-12-10T05:09:44;2.30;;;2.20;;
21589;SDS011;10957;50.968;6.828;2022-12-10T05:14:45;2.00;;;1.90;;
21589;SDS011;10957;50.968;6.828;2022-12-10T05:19:46;2.10;;;2.00;;
21589;SDS011;10957;50.968;6.828;2022-12-10T05:24:48;2.63;;;2.53;;
21589;SDS011;10957;50.968;6.828;2022-12-10T05:29:49;2.10;;;2.00;;
21589;SDS011;10957;50.968;6.828;2022-12-10T05:34:50;2.10;;;2.00;;
21589;SDS011;10957;50.968;6.828;2022-12-10T05:39:51;2.27;;;2.17;;
21589;SDS011;10957;50.968;6.828;2022-12-10T05:44:53;3.07;;;2.97;;
21589;SDS011;10957;50.968;6.828;2022-12-10T05:49:54;2.40;;;2.30;;
21589;SDS011;10957;50.968;6.828;2022-12-10T05:54:56;2.57;;;2.47;;
21589;SDS011;10957;50.968;6.828;2022-12-10T05:59:57;2.40;;;2.30;;
21589;SDS011;10957;50.968;6.828;2022-12-10T06:04:59;2.50;;;2.40;;
21589;SDS011;10957;50.968;6.828;2022-12-10T06:10:00;2.40;;;2.30;;
21589;SDS011;10957;50.968;6.828;2022-12-10T06:15:01;2.50;;;2.40;;
21589;SDS011;10957;50.968;6.828;2022-12-10T06:20:03;2.40;;;2.30;;
21589;SDS011;10957;50.968;6.828;2022-12-10T06:25:05;2.70;;;2.57;;
21589;SDS011;10957;50.968;6.828;2022-12-10T06:30:07;2.50;;;2.40;;
21589;SDS011;10957;50.968;6.828;2022-12-10T06:35:09;2.40;;;2.30;;
21589;SDS011;10957;50.968;6.828;2022-12-10T06:40:11;3.13;;;3.03;;
21589;SDS011;10957;50.968;6.828;2022-12-10T06:45:12;2.80;;;2.70;;
21589;SDS011;10957;50.968;6.828;2022-12-10T06:50:13;3.80;;;3.60;;
21589;SDS011;10957;50.968;6.828;2022-12-10T06:55:15;2.80;;;2.70;;
21589;SDS011;10957;50.968;6.828;2022-12-10T07:00:16;3.97;;;3.77;;
21589;SDS011;10957;50.968;6.828;2022-12-10T07:05:17;2.50;;;2.40;;
21589;SDS011;10957;50.968;6.828;2022-12-10T07:10:19;3.47;;;3.27;;
21589;SDS011;10957;50.968;6.828;2022-12-10T07:15:21;4.80;;;4.30;;
21589;SDS011;10957;50.968;6.828;2022-12-10T07:20:24;2.50;;;2.40;;
21589;SDS011;10957;50.968;6.828;2022-12-10T07:25:25;2.83;;;2.73;;
21589;SDS011;10957;50.968;6.828;2022-12-10T07:30:26;2.63;;;2.53;;
21589;SDS011;10957;50.968;6.828;2022-12-10T07:35:28;2.30;;;2.20;;
21589;SDS011;10957;50.968;6.828;2022-12-10T07:40:29;2.30;;;2.20;;
21589;SDS011;10957;50.968;6.828;2022-12-10T07:45:30;3.63;;;3.43;;
21589;SDS011;10957;50.968;6.828;2022-12-10T07:50:32;3.27;;;3.13;;
21589;SDS011;10957;50.968;6.828;2022-12-10T07:55:34;2.47;;;2.37;;
21589;SDS011;10957;50.968;6.828;2022-12-10T08:00:36;2.00;;;1.90;;
21589;SDS011;10957;50.968;6.828;2022-12-10T08:05:37;2.70;;;2.60;;
21589;SDS011;10957;50.968;6.828;2022-12-10T08:10:38;2.20;;;2.10;;
21589;SDS011;10957;50.968;6.828;2022-12-10T08:15:40;2.20;;;2.10;;
21589;SDS011;10957;50.968;6.828;2022-12-10T08:20:41;2.13;;;2.03;;
21589;SDS011;10957;50.968;6.828;2022-12-10T08:25:42;2.17;;;2.07;;
21589;SDS011;10957;50.968;6.828;2022-12-10T08:30:47;2.70;;;2.60;;
21589;SDS011;10957;50.968;6.828;2022-12-10T08:35:49;2.63;;;2.53;;
21589;SDS011;10957;50.968;6.828;2022-12-10T08:40:50;2.47;;;2.37;;
21589;SDS011;10957;50.968;6.828;2022-12-10T08:45:51;2.60;;;2.50;;
21589;SDS011;10957;50.968;6.828;2022-12-10T08:50:52;2.70;;;2.60;;
21589;SDS011;10957;50.968;6.828;2022-12-10T08:55:55;2.80;;;2.70;;
21589;SDS011;10957;50.968;6.828;2022-12-10T09:00:56;2.57;;;2.47;;
21589;SDS011;10957;50.968;6.828;2022-12-10T09:06:01;2.73;;;2.63;;
21589;SDS011;10957;50.968;6.828;2022-12-10T09:11:04;3.87;;;3.57;;
21589;SDS011;10957;50.968;6.828;2022-12-10T09:16:09;2.70;;;2.60;;
21589;SDS011;10957;50.968;6.828;2022-12-10T09:21:13;2.57;;;2.47;;
21589;SDS011;10957;50.968;6.828;2022-12-10T09:26:16;2.90;;;2.80;;
21589;SDS011;10957;50.968;6.828;2022-12-10T09:31:19;3.03;;;2.93;;
21589;SDS011;10957;50.968;6.828;2022-12-10T09:36:21;2.60;;;2.50;;
21589;SDS011;10957;50.968;6.828;2022-12-10T09:46:55;3.13;;;3.03;;
21589;SDS011;10957;50.968;6.828;2022-12-10T09:51:59;2.87;;;2.77;;
21589;SDS011;10957;50.968;6.828;2022-12-10T09:57:03;2.80;;;2.70;;
21589;SDS011;10957;50.968;6.828;2022-12-10T10:02:21;2.80;;;2.70;;
21589;SDS011;10957;50.968;6.828;2022-12-10T10:07:28;3.07;;;2.97;;
21589;SDS011;10957;50.968;6.828;2022-12-10T10:12:33;3.50;;;3.30;;
21589;SDS011;10957;50.968;6.828;2022-12-10T10:17:36;3.03;;;2.93;;
21589;SDS011;10957;50.968;6.828;2022-12-10T10:22:38;3.30;;;3.17;;
21589;SDS011;10957;50.968;6.828;2022-12-10T10:27:40;3.63;;;3.53;;
21589;SDS011;10957;50.968;6.828;2022-12-10T10:37:46;3.70;;;3.50;;
21589;SDS011;10957;50.968;6.828;2022-12-10T10:42:47;4.80;;;4.40;;
21589;SDS011;10957;50.968;6.828;2022-12-10T10:47:49;3.50;;;3.40;;
21589;SDS011;10957;50.968;6.828;2022-12-10T10:53:19;3.30;;;3.20;;
21589;SDS011;10957;50.968;6.828;2022-12-10T10:58:21;4.00;;;3.80;;
21589;SDS011;10957;50.968;6.828;2022-12-10T11:03:25;4.80;;;4.53;;
21589;SDS011;10957;50.968;6.828;2022-12-10T11:08:30;3.70;;;3.60;;
21589;SDS011;10957;50.968;6.828;2022-12-10T11:13:33;3.50;;;3.40;;
21589;SDS011;10957;50.968;6.828;2022-12-10T11:18:40;5.03;;;4.83;;
21589;SDS011;10957;50.968;6.828;2022-12-10T11:23:43;4.20;;;4.00;;
21589;SDS011;10957;50.968;6.828;2022-12-10T11:39:41;6.10;;;5.80;;
21589;SDS011;10957;50.968;6.828;2022-12-10T11:50:15;6.47;;;6.07;;
21589;SDS011;10957;50.968;6.828;2022-12-10T11:55:32;4.50;;;4.30;;
21589;SDS011;10957;50.968;6.828;2022-12-10T12:00:57;4.30;;;4.10;;
21589;SDS011;10957;50.968;6.828;2022-12-10T12:06:08;4.70;;;4.50;;
21589;SDS011;10957;50.968;6.828;2022-12-10T12:17:37;4.70;;;4.50;;
21589;SDS011;10957;50.968;6.828;2022-12-10T12:22:34;4.90;;;4.70;;
21589;SDS011;10957;50.968;6.828;2022-12-10T12:27:47;5.10;;;4.90;;
21589;SDS011;10957;50.968;6.828;2022-12-10T12:33:01;5.70;;;5.40;;
21589;SDS011;10957;50.968;6.828;2022-12-10T12:54:01;4.80;;;4.60;;
21589;SDS011;10957;50.968;6.828;2022-12-10T12:59:05;4.47;;;4.27;;
21589;SDS011;10957;50.968;6.828;2022-12-10T13:04:20;5.57;;;5.30;;
21589;SDS011;10957;50.968;6.828;2022-12-10T13:09:26;4.50;;;4.30;;
21589;SDS011;10957;50.968;6.828;2022-12-10T13:14:29;5.33;;;5.13;;
21589;SDS011;10957;50.968;6.828;2022-12-10T13:19:33;5.37;;;5.07;;
21589;SDS011;10957;50.968;6.828;2022-12-10T13:29:46;5.43;;;5.23;;
21589;SDS011;10957;50.968;6.828;2022-12-10T13:45:24;5.50;;;5.30;;
21589;SDS011;10957;50.968;6.828;2022-12-10T13:50:39;5.70;;;5.50;;
21589;SDS011;10957;50.968;6.828;2022-12-10T14:07:17;5.33;;;5.13;;
21589;SDS011;10957;50.968;6.828;2022-12-10T14:12:30;5.50;;;5.30;;
21589;SDS011;10957;50.968;6.828;2022-12-10T14:17:35;5.23;;;5.03;;
21589;SDS011;10957;50.968;6.828;2022-12-10T14:22:45;5.43;;;5.23;;
21589;SDS011;10957;50.968;6.828;2022-12-10T14:27:49;6.23;;;5.83;;
21589;SDS011;10957;50.968;6.828;2022-12-10T14:32:53;5.07;;;4.87;;
21589;SDS011;10957;50.968;6.828;2022-12-10T14:37:57;5.40;;;5.20;;
21589;SDS011;10957;50.968;6.828;2022-12-10T14:43:04;5.20;;;5.00;;
21589;SDS011;10957;50.968;6.828;2022-12-10T14:48:08;6.83;;;6.43;;
21589;SDS011;10957;50.968;6.828;2022-12-10T14:53:15;5.90;;;5.60;;
21589;SDS011;10957;50.968;6.828;2022-12-10T15:03:32;5.10;;;4.90;;
21589;SDS011;10957;50.968;6.828;2022-12-10T15:08:38;5.40;;;5.20;;
21589;SDS011;10957;50.968;6.828;2022-12-10T15:13:43;5.60;;;5.30;;
21589;SDS011;10957;50.968;6.828;2022-12-10T15:18:48;5.10;;;4.90;;
21589;SDS011;10957;50.968;6.828;2022-12-10T15:23:59;5.80;;;5.50;;
21589;SDS011;10957;50.968;6.828;2022-12-10T15:29:40;7.53;;;7.00;;
21589;SDS011;10957;50.968;6.828;2022-12-10T15:34:43;4.83;;;4.63;;
21589;SDS011;10957;50.968;6.828;2022-12-10T15:39:48;4.90;;;4.70;;
21589;SDS011;10957;50.968;6.828;2022-12-10T15:44:56;4.90;;;4.70;;
21589;SDS011;10957;50.968;6.828;2022-12-10T15:50:01;4.63;;;4.43;;
21589;SDS011;10957;50.968;6.828;2022-12-10T15:55:02;5.23;;;5.00;;
21589;SDS011;10957;50.968;6.828;2022-12-10T16:00:05;5.30;;;5.00;;
21589;SDS011;10957;50.968;6.828;2022-12-10T16:05:22;4.50;;;4.30;;
21589;SDS011;10957;50.968;6.828;2022-12-10T16:10:30;6.27;;;5.83;;
21589;SDS011;10957;50.968;6.828;2022-12-10T16:15:43;4.93;;;4.73;;
21589;SDS011;10957;50.968;6.828;2022-12-10T16:20:47;4.53;;;4.33;;
21589;SDS011;10957;50.968;6.828;2022-12-10T16:25:48;4.50;;;4.30;;
21589;SDS011;10957;50.968;6.828;2022-12-10T16:30:50;4.20;;;4.00;;
21589;SDS011;10957;50.968;6.828;2022-12-10T16:35:56;4.50;;;4.30;;
21589;SDS011;10957;50.968;6.828;2022-12-10T16:40:58;4.10;;;3.90;;
21589;SDS011;10957;50.968;6.828;2022-12-10T16:46:00;4.80;;;4.60;;
21589;SDS011;10957;50.968;6.828;2022-12-10T16:51:02;4.30;;;4.10;;
21589;SDS011;10957;50.968;6.828;2022-12-10T16:56:03;4.73;;;4.53;;
21589;SDS011;10957;50.968;6.828;2022-12-10T17:01:09;4.30;;;4.10;;
21589;SDS011;10957;50.968;6.828;2022-12-10T17:06:17;4.40;;;4.20;;
21589;SDS011;10957;50.968;6.828;2022-12-10T17:11:20;4.43;;;4.23;;
21589;SDS011;10957;50.968;6.828;2022-12-10T17:16:51;4.20;;;4.00;;
21589;SDS011;10957;50.968;6.828;2022-12-10T17:21:55;3.60;;;3.50;;
21589;SDS011;10957;50.968;6.828;2022-12-10T17:26:58;3.87;;;3.77;;
21589;SDS011;10957;50.968;6.828;2022-12-10T17:32:04;3.30;;;3.20;;
21589;SDS011;10957;50.968;6.828;2022-12-10T17:37:11;3.40;;;3.30;;
21589;SDS011;10957;50.968;6.828;2022-12-10T17:42:13;3.80;;;3.70;;
21589;SDS011;10957;50.968;6.828;2022-12-10T17:47:15;3.50;;;3.30;;
21589;SDS011;10957;50.968;6.828;2022-12-10T17:52:21;2.90;;;2.80;;
21589;SDS011;10957;50.968;6.828;2022-12-10T17:57:23;3.37;;;3.27;;
21589;SDS011;10957;50.968;6.828;2022-12-10T18:02:26;3.20;;;3.10;;
21589;SDS011;10957;50.968;6.828;2022-12-10T18:07:27;4.87;;;4.60;;
21589;SDS011;10957;50.968;6.828;2022-12-10T18:12:28;3.53;;;3.43;;
21589;SDS011;10957;50.968;6.828;2022-12-10T18:17:29;3.10;;;3.00;;
21589;SDS011;10957;50.968;6.828;2022-12-10T18:22:31;4.57;;;4.37;;
21589;SDS011;10957;50.968;6.828;2022-12-10T18:27:32;3.70;;;3.50;;
21589;SDS011;10957;50.968;6.828;2022-12-10T18:32:33;3.73;;;3.57;;
21589;SDS011;10957;50.968;6.828;2022-12-10T18:37:34;3.53;;;3.43;;
21589;SDS011;10957;50.968;6.828;2022-12-10T18:42:36;3.40;;;3.30;;
21589;SDS011;10957;50.968;6.828;2022-12-10T18:47:37;3.67;;;3.53;;
21589;SDS011;10957;50.968;6.828;2022-12-10T18:52:38;3.53;;;3.37;;
21589;SDS011;10957;50.968;6.828;2022-12-10T18:57:39;3.20;;;3.10;;
21589;SDS011;10957;50.968;6.828;2022-12-10T19:02:40;2.80;;;2.70;;
21589;SDS011;10957;50.968;6.828;2022-12-10T19:07:42;3.43;;;3.33;;
21589;SDS011;10957;50.968;6.828;2022-12-10T19:12:43;2.80;;;2.70;;
21589;SDS011;10957;50.968;6.828;2022-12-10T19:17:45;2.87;;;2.77;;
21589;SDS011;10957;50.968;6.828;2022-12-10T19:22:47;2.80;;;2.70;;
21589;SDS011;10957;50.968;6.828;2022-12-10T19:27:50;2.90;;;2.80;;
21589;SDS011;10957;50.968;6.828;2022-12-10T19:32:51;3.03;;;2.93;;
21589;SDS011;10957;50.968;6.828;2022-12-10T19:37:52;2.60;;;2.50;;
21589;SDS011;10957;50.968;6.828;2022-12-10T19:42:54;3.47;;;3.30;;
21589;SDS011;10957;50.968;6.828;2022-12-10T19:47:56;3.00;;;2.90;;
21589;SDS011;10957;50.968;6.828;2022-12-10T19:52:57;3.00;;;2.90;;
21589;SDS011;10957;50.968;6.828;2022-12-10T19:57:59;3.00;;;2.90;;
21589;SDS011;10957;50.968;6.828;2022-12-10T20:03:00;3.20;;;3.10;;
21589;SDS011;10957;50.968;6.828;2022-12-10T20:08:02;2.90;;;2.80;;
21589;SDS011;10957;50.968;6.828;2022-12-10T20:13:03;3.00;;;2.90;;
21589;SDS011;10957;50.968;6.828;2022-12-10T20:18:05;2.73;;;2.63;;
21589;SDS011;10957;50.968;6.828;2022-12-10T20:23:06;2.80;;;2.70;;
21589;SDS011;10957;50.968;6.828;2022-12-10T20:28:08;3.10;;;3.00;;
21589;SDS011;10957;50.968;6.828;2022-12-10T20:33:13;3.47;;;3.33;;
21589;SDS011;10957;50.968;6.828;2022-12-10T20:38:14;2.80;;;2.70;;
21589;SDS011;10957;50.968;6.828;2022-12-10T20:43:15;2.77;;;2.67;;
21589;SDS011;10957;50.968;6.828;2022-12-10T20:48:16;3.50;;;3.30;;
21589;SDS011;10957;50.968;6.828;2022-12-10T20:53:17;2.90;;;2.80;;
21589;SDS011;10957;50.968;6.828;2022-12-10T20:58:19;3.07;;;2.93;;
21589;SDS011;10957;50.968;6.828;2022-12-10T21:03:20;2.80;;;2.70;;
21589;SDS011;10957;50.968;6.828;2022-12-10T21:08:21;2.50;;;2.40;;
21589;SDS011;10957;50.968;6.828;2022-12-10T21:13:24;3.13;;;2.93;;
21589;SDS011;10957;50.968;6.828;2022-12-10T21:18:27;2.20;;;2.10;;
21589;SDS011;10957;50.968;6.828;2022-12-10T21:23:29;2.30;;;2.20;;
21589;SDS011;10957;50.968;6.828;2022-12-10T21:28:30;2.50;;;2.40;;
21589;SDS011;10957;50.968;6.828;2022-12-10T21:33:31;2.57;;;2.47;;
21589;SDS011;10957;50.968;6.828;2022-12-10T21:38:32;2.50;;;2.40;;
21589;SDS011;10957;50.968;6.828;2022-12-10T21:43:34;2.43;;;2.33;;
21589;SDS011;10957;50.968;6.828;2022-12-10T21:48:35;2.30;;;2.20;;
21589;SDS011;10957;50.968;6.828;2022-12-10T21:53:36;2.87;;;2.77;;
21589;SDS011;10957;50.968;6.828;2022-12-10T21:58:37;2.20;;;2.10;;
21589;SDS011;10957;50.968;6.828;2022-12-10T22:03:39;2.97;;;2.77;;
21589;SDS011;10957;50.968;6.828;2022-12-10T22:08:40;2.17;;;2.07;;
21589;SDS011;10957;50.968;6.828;2022-12-10T22:13:41;2.13;;;2.03;;
21589;SDS011;10957;50.968;6.828;2022-12-10T22:18:43;2.17;;;2.07;;
21589;SDS011;10957;50.968;6.828;2022-12-10T22:23:44;3.40;;;3.20;;
21589;SDS011;10957;50.968;6.828;2022-12-10T22:28:45;2.77;;;2.67;;
21589;SDS011;10957;50.968;6.828;2022-12-10T22:33:46;4.20;;;3.80;;
21589;SDS011;10957;50.968;6.828;2022-12-10T22:38:48;2.60;;;2.50;;
21589;SDS011;10957;50.968;6.828;2022-12-10T22:43:50;2.00;;;1.90;;
21589;SDS011;10957;50.968;6.828;2022-12-10T22:48:51;6.13;;;3.27;;
21589;SDS011;10957;50.968;6.828;2022-12-10T22:53:52;2.17;;;2.07;;
21589;SDS011;10957;50.968;6.828;2022-12-10T22:58:55;1.70;;;1.70;;
21589;SDS011;10957;50.968;6.828;2022-12-10T23:03:57;2.20;;;2.10;;
21589;SDS011;10957;50.968;6.828;2022-12-10T23:08:58;3.07;;;2.87;;
21589;SDS011;10957;50.968;6.828;2022-12-10T23:14:01;2.03;;;1.93;;
21589;SDS011;10957;50.968;6.828;2022-12-10T23:19:02;2.20;;;2.10;;
21589;SDS011;10957;50.968;6.828;2022-12-10T23:24:03;2.33;;;2.23;;
21589;SDS011;10957;50.968;6.828;2022-12-10T23:29:05;2.00;;;1.90;;
21589;SDS011;10957;50.968;6.828;2022-12-10T23:34:06;2.50;;;2.40;;
21589;SDS011;10957;50.968;6.828;2022-12-10T23:39:07;2.20;;;2.10;;
21589;SDS011;10957;50.968;6.828;2022-12-10T23:44:08;2.23;;;2.13;;
21589;SDS011;10957;50.968;6.828;2022-12-10T23:49:09;1.80;;;1.80;;
21589;SDS011;10957;50.968;6.828;2022-12-10T23:54:11;3.40;;;3.20;;
21589;SDS011;10957;50.968;6.828;2022-12-10T23:59:12;3.30;;;3.10;;
